Time;durP1;ratioP1;P1;durP2;ratioP2;P2;SDS_P1;SDS_P2;PMS_P1;PMS_P2;Temp;Humidity;BMP_temperature;BMP_pressure;BME280_temperature;BME280_humidity;BME280_pressure;Samples;Min_cycle;Max_cycle;Signal;HPM_P1;HPM_P2
2021/01/16 00:00:28;;;;;;;33.40;16.90;;;3.60;99.90;;;;;;5114913;28;20255;-79
2021/01/16 00:02:54;;;;;;;33.47;16.80;;;3.50;99.90;;;;;;5114613;28;20208;-80
2021/01/16 00:05:24;;;;;;;35.70;17.50;;;3.40;99.90;;;;;;5114692;28;20213;-79
2021/01/16 00:08:01;;;;;;;33.70;17.60;;;3.30;99.90;;;;;;5104714;28;20218;-79
2021/01/16 00:10:29;;;;;;;33.00;16.63;;;3.40;99.90;;;;;;5114131;28;20543;-79
2021/01/16 00:12:55;;;;;;;33.40;17.10;;;3.50;99.90;;;;;;5114652;28;20202;-78
2021/01/16 00:15:22;;;;;;;34.07;16.67;;;3.50;99.90;;;;;;5114608;28;20675;-79
2021/01/16 00:17:58;;;;;;;36.23;17.80;;;3.50;99.90;;;;;;5114563;28;20199;-79
2021/01/16 00:20:26;;;;;;;34.80;17.50;;;3.40;99.90;;;;;;5113764;28;20201;-79
2021/01/16 00:22:52;;;;;;;36.13;17.70;;;3.30;99.90;;;;;;5104746;28;20208;-79
2021/01/16 00:25:19;;;;;;;39.23;18.07;;;3.40;99.90;;;;;;5102107;28;20257;-79
2021/01/16 00:27:45;;;;;;;34.23;18.03;;;3.40;99.90;;;;;;5114240;28;20201;-79
2021/01/16 00:30:13;;;;;;;32.10;16.87;;;3.40;99.90;;;;;;5114352;28;20199;-79
2021/01/16 00:32:40;;;;;;;38.10;18.17;;;3.30;99.90;;;;;;5113936;28;20199;-79
2021/01/16 00:35:09;;;;;;;34.47;18.03;;;3.30;99.90;;;;;;5114105;28;20210;-79
2021/01/16 00:37:37;;;;;;;31.67;17.33;;;3.30;99.90;;;;;;5114160;28;20201;-79
2021/01/16 00:40:06;;;;;;;35.20;17.37;;;3.30;99.90;;;;;;5113781;28;20211;-79
2021/01/16 00:42:32;;;;;;;29.97;15.97;;;3.20;99.90;;;;;;5114042;28;20235;-79
2021/01/16 00:44:58;;;;;;;31.80;17.30;;;3.20;99.90;;;;;;5114038;28;20214;-79
2021/01/16 00:47:25;;;;;;;32.90;17.57;;;3.30;99.90;;;;;;5113945;28;20222;-79
2021/01/16 00:49:51;;;;;;;35.20;17.20;;;3.40;99.90;;;;;;5113893;28;20276;-79
2021/01/16 00:52:18;;;;;;;30.47;16.80;;;3.30;99.90;;;;;;5112600;28;20283;-79
2021/01/16 00:54:45;;;;;;;32.40;17.37;;;3.20;99.90;;;;;;5113469;28;20294;-79
2021/01/16 00:57:11;;;;;;;33.43;17.00;;;3.30;99.90;;;;;;5114101;28;20618;-79
2021/01/16 00:59:38;;;;;;;33.20;16.43;;;3.30;99.90;;;;;;5114398;28;20199;-79
2021/01/16 01:02:04;;;;;;;31.10;15.80;;;3.30;99.90;;;;;;5114352;28;20245;-79
2021/01/16 01:04:30;;;;;;;31.60;16.17;;;3.40;99.90;;;;;;5114109;28;20200;-79
2021/01/16 01:07:00;;;;;;;30.53;16.67;;;3.40;99.90;;;;;;5114529;28;20578;-79
2021/01/16 01:09:27;;;;;;;30.87;16.67;;;3.40;99.90;;;;;;5114312;28;20215;-79
2021/01/16 01:11:54;;;;;;;34.10;17.70;;;3.50;99.90;;;;;;5113775;28;20298;-79
2021/01/16 01:14:20;;;;;;;29.63;16.50;;;3.40;99.90;;;;;;5113480;28;20204;-79
2021/01/16 01:16:47;;;;;;;34.87;17.00;;;3.30;99.90;;;;;;5112497;28;20211;-78
2021/01/16 01:19:13;;;;;;;35.93;17.40;;;3.30;99.90;;;;;;5095985;28;20208;-79
2021/01/16 01:21:39;;;;;;;32.50;16.73;;;3.40;99.90;;;;;;5112497;28;20582;-79
2021/01/16 01:24:07;;;;;;;32.10;16.73;;;3.40;99.90;;;;;;5113158;28;20206;-79
2021/01/16 01:26:37;;;;;;;29.03;15.80;;;3.40;99.90;;;;;;5111906;28;20208;-79
2021/01/16 01:29:05;;;;;;;28.77;15.20;;;3.30;99.90;;;;;;5113097;28;20215;-79
2021/01/16 01:31:32;;;;;;;30.27;15.90;;;3.20;99.90;;;;;;5112794;28;20664;-79
2021/01/16 01:33:58;;;;;;;31.10;15.43;;;3.00;99.90;;;;;;5112778;28;20227;-79
2021/01/16 01:36:25;;;;;;;32.70;15.53;;;2.90;99.90;;;;;;5099589;28;20218;-79
2021/01/16 01:38:51;;;;;;;27.77;14.67;;;3.00;99.90;;;;;;5113012;28;20200;-79
2021/01/16 01:41:17;;;;;;;33.10;15.90;;;3.20;99.90;;;;;;5112839;28;20230;-79
2021/01/16 01:43:44;;;;;;;28.83;15.00;;;3.30;99.90;;;;;;5112943;28;20317;-79
2021/01/16 01:46:11;;;;;;;29.80;14.83;;;3.30;99.90;;;;;;5112886;28;20271;-79
2021/01/16 01:48:37;;;;;;;28.47;15.03;;;3.40;99.90;;;;;;5112994;28;20207;-79
2021/01/16 01:51:04;;;;;;;30.97;15.73;;;3.40;99.90;;;;;;5100379;28;20196;-79
2021/01/16 01:53:31;;;;;;;30.80;15.80;;;3.40;99.90;;;;;;5092245;28;20195;-79
2021/01/16 01:55:59;;;;;;;29.50;14.80;;;3.50;99.90;;;;;;5095403;28;20701;-79
2021/01/16 01:58:26;;;;;;;34.17;15.83;;;3.40;99.90;;;;;;5093931;28;20192;-79
2021/01/16 02:00:53;;;;;;;28.00;15.87;;;3.50;99.90;;;;;;5096213;28;20564;-79
2021/01/16 02:03:22;;;;;;;30.30;15.13;;;3.40;99.90;;;;;;5091949;28;20203;-79
2021/01/16 02:05:53;;;;;;;32.83;16.73;;;3.30;99.90;;;;;;5094197;28;20195;-79
2021/01/16 02:08:20;;;;;;;31.60;14.77;;;3.30;99.90;;;;;;5093973;28;20203;-79
2021/01/16 02:10:46;;;;;;;30.50;14.97;;;3.30;99.90;;;;;;5091864;28;20204;-79
2021/01/16 02:13:14;;;;;;;26.60;15.50;;;3.30;99.90;;;;;;5096062;28;20574;-79
2021/01/16 02:15:47;;;;;;;28.13;14.97;;;3.30;99.90;;;;;;5094022;28;20196;-79
2021/01/16 02:18:25;;;;;;;27.07;15.30;;;3.30;99.90;;;;;;5093149;28;20208;-79
2021/01/16 02:20:54;;;;;;;27.93;15.20;;;3.30;99.90;;;;;;5092890;28;20260;-79
2021/01/16 02:23:42;;;;;;;27.83;14.03;;;3.40;99.90;;;;;;5092739;28;20214;-79
2021/01/16 02:26:46;;;;;;;30.13;15.50;;;3.40;99.90;;;;;;5102668;28;20616;-79
2021/01/16 02:29:14;;;;;;;30.80;15.60;;;3.20;99.90;;;;;;5105171;28;20373;-79
2021/01/16 02:31:46;;;;;;;29.57;16.77;;;3.10;99.90;;;;;;5112574;28;20214;-79
2021/01/16 02:34:18;;;;;;;29.13;15.57;;;3.20;99.90;;;;;;5097855;28;20299;-79
2021/01/16 02:37:23;;;;;;;27.43;14.77;;;3.30;99.90;;;;;;5092508;28;20200;-79
2021/01/16 02:40:02;;;;;;;30.13;16.20;;;3.30;99.90;;;;;;5092090;28;20669;-79
2021/01/16 02:42:37;;;;;;;28.63;15.03;;;3.30;99.90;;;;;;5091775;28;20217;-79
2021/01/16 02:45:07;;;;;;;27.80;15.43;;;3.40;99.90;;;;;;5091953;28;20210;-80
2021/01/16 02:47:49;;;;;;;28.47;15.17;;;3.50;99.90;;;;;;5092132;28;20207;-79
2021/01/16 02:50:20;;;;;;;29.17;15.40;;;3.40;99.90;;;;;;5092022;28;20710;-80
2021/01/16 02:52:48;;;;;;;24.87;14.67;;;3.40;99.90;;;;;;5092109;28;20217;-79
2021/01/16 02:55:15;;;;;;;29.27;15.43;;;3.40;99.90;;;;;;5091953;28;20637;-79
2021/01/16 02:57:42;;;;;;;30.17;15.23;;;3.40;99.90;;;;;;5091770;28;20209;-80
2021/01/16 03:00:11;;;;;;;26.57;15.83;;;3.40;99.90;;;;;;5091933;28;20208;-79
2021/01/16 03:02:37;;;;;;;27.97;14.63;;;3.40;99.90;;;;;;5091965;28;20227;-79
2021/01/16 03:05:05;;;;;;;29.97;15.73;;;3.30;99.90;;;;;;5092241;28;20217;-79
2021/01/16 03:07:32;;;;;;;31.93;15.43;;;3.40;99.90;;;;;;5091680;28;20210;-79
2021/01/16 03:10:04;;;;;;;30.03;16.03;;;3.50;99.90;;;;;;5092020;28;20203;-79
2021/01/16 03:12:32;;;;;;;29.30;15.63;;;3.40;99.90;;;;;;5091900;28;20204;-79
2021/01/16 03:15:01;;;;;;;32.67;16.07;;;3.40;99.90;;;;;;5091876;28;20204;-79
2021/01/16 03:17:43;;;;;;;27.83;15.00;;;3.40;99.90;;;;;;5095438;28;20204;-79
2021/01/16 03:20:11;;;;;;;27.07;14.80;;;3.30;99.90;;;;;;5095200;28;20207;-79
2021/01/16 03:22:38;;;;;;;26.83;14.00;;;3.30;99.90;;;;;;5095452;28;20219;-79
2021/01/16 03:25:05;;;;;;;29.37;14.90;;;3.30;99.90;;;;;;5095424;28;20205;-79
2021/01/16 03:27:32;;;;;;;30.47;15.90;;;3.20;99.90;;;;;;5095473;28;20211;-79
2021/01/16 03:29:58;;;;;;;33.20;15.87;;;3.30;99.90;;;;;;5096103;28;20235;-79
2021/01/16 03:32:25;;;;;;;32.10;15.27;;;3.40;99.90;;;;;;5096598;28;20221;-79
2021/01/16 03:34:53;;;;;;;32.87;15.93;;;3.40;99.90;;;;;;5096374;28;20208;-79
2021/01/16 03:37:20;;;;;;;30.93;15.70;;;3.40;99.90;;;;;;5095487;28;20212;-79
2021/01/16 03:39:46;;;;;;;29.57;15.17;;;3.30;99.90;;;;;;5095206;28;20203;-79
2021/01/16 03:42:13;;;;;;;32.17;16.23;;;3.30;99.90;;;;;;5095031;28;20208;-80
2021/01/16 03:44:39;;;;;;;29.67;15.63;;;3.40;99.90;;;;;;5094790;28;20311;-79
2021/01/16 03:47:06;;;;;;;29.13;16.00;;;3.40;99.90;;;;;;5094806;28;20220;-79
2021/01/16 03:49:33;;;;;;;31.53;16.33;;;3.40;99.90;;;;;;5095049;28;20215;-79
2021/01/16 03:52:00;;;;;;;30.23;15.47;;;3.40;99.90;;;;;;5094943;28;20197;-79
2021/01/16 03:54:26;;;;;;;29.87;15.87;;;3.40;99.90;;;;;;5094676;28;20210;-80
2021/01/16 03:56:53;;;;;;;32.73;17.43;;;3.40;99.90;;;;;;5094640;28;20212;-80
2021/01/16 03:59:19;;;;;;;31.90;16.13;;;3.40;99.90;;;;;;5094362;28;20201;-79
2021/01/16 04:01:46;;;;;;;29.07;15.93;;;3.40;99.90;;;;;;5094305;28;20597;-79
2021/01/16 04:04:13;;;;;;;28.73;15.50;;;3.40;99.90;;;;;;5094447;28;20203;-79
2021/01/16 04:06:39;;;;;;;29.33;15.63;;;3.30;99.90;;;;;;5094063;28;20660;-79
2021/01/16 04:09:07;;;;;;;29.43;15.67;;;3.30;99.90;;;;;;5094221;28;20233;-79
2021/01/16 04:11:34;;;;;;;32.53;16.30;;;3.40;99.90;;;;;;5094204;28;20205;-79
2021/01/16 04:14:00;;;;;;;30.33;16.97;;;3.30;99.90;;;;;;5094484;28;20200;-79
2021/01/16 04:16:27;;;;;;;31.00;16.00;;;3.40;99.90;;;;;;5094233;28;20529;-79
2021/01/16 04:18:54;;;;;;;30.83;15.90;;;3.40;99.90;;;;;;5094136;28;20216;-79
2021/01/16 04:21:20;;;;;;;30.80;16.07;;;3.30;99.90;;;;;;5094038;28;20224;-78
2021/01/16 04:23:46;;;;;;;30.13;16.80;;;3.30;99.90;;;;;;5094414;28;20209;-79
2021/01/16 04:26:14;;;;;;;33.80;17.07;;;3.40;99.90;;;;;;5093881;28;20665;-79
2021/01/16 04:28:40;;;;;;;29.67;15.77;;;3.40;99.90;;;;;;5093894;28;20307;-79
2021/01/16 04:31:06;;;;;;;31.83;16.20;;;3.40;99.90;;;;;;5094157;28;20214;-79
2021/01/16 04:33:33;;;;;;;34.90;17.60;;;3.40;99.90;;;;;;5093895;28;20207;-80
2021/01/16 04:35:59;;;;;;;31.93;16.43;;;3.30;99.90;;;;;;5094151;28;20205;-79
2021/01/16 04:38:25;;;;;;;32.00;16.37;;;3.40;99.90;;;;;;5093958;28;20235;-79
2021/01/16 04:40:52;;;;;;;33.67;16.13;;;3.40;99.90;;;;;;5094072;28;20210;-79
2021/01/16 04:43:21;;;;;;;33.80;16.73;;;3.40;99.90;;;;;;5093738;28;20211;-79
2021/01/16 04:45:50;;;;;;;33.27;15.80;;;3.40;99.90;;;;;;5093896;28;20200;-79
2021/01/16 04:48:19;;;;;;;30.43;16.03;;;3.20;99.90;;;;;;5093544;28;20205;-79
2021/01/16 04:50:49;;;;;;;30.93;16.20;;;3.20;99.90;;;;;;5093303;28;20241;-79
2021/01/16 04:53:19;;;;;;;31.33;15.70;;;3.30;99.90;;;;;;5093468;28;20272;-79
2021/01/16 04:55:47;;;;;;;31.80;16.50;;;3.30;99.90;;;;;;5093585;28;20253;-79
2021/01/16 04:58:13;;;;;;;33.17;17.33;;;3.30;99.90;;;;;;5093922;28;20209;-79
2021/01/16 05:00:42;;;;;;;30.67;16.10;;;3.20;99.90;;;;;;5093304;28;20200;-79
2021/01/16 05:03:10;;;;;;;29.30;15.60;;;3.30;99.90;;;;;;5093184;28;20221;-79
2021/01/16 05:05:40;;;;;;;30.97;16.20;;;3.30;99.90;;;;;;5093347;28;20204;-79
2021/01/16 05:08:07;;;;;;;29.40;15.63;;;3.30;99.90;;;;;;5093430;28;20209;-79
2021/01/16 05:10:38;;;;;;;29.00;15.53;;;3.30;99.90;;;;;;5093091;28;20215;-79
2021/01/16 05:13:15;;;;;;;31.90;16.13;;;3.30;99.90;;;;;;5093109;28;20207;-79
2021/01/16 05:15:43;;;;;;;31.93;15.93;;;3.30;99.90;;;;;;5093369;28;20203;-80
2021/01/16 05:18:11;;;;;;;31.50;16.23;;;3.30;99.90;;;;;;5093351;28;20201;-79
2021/01/16 05:20:39;;;;;;;34.58;19.13;;;3.30;99.90;;;;;;5092614;28;20455;-79
2021/01/16 05:23:17;;;;;;;41.50;17.63;;;3.20;99.90;;;;;;5092765;28;20231;-79
2021/01/16 05:25:46;;;;;;;29.47;16.00;;;3.20;99.90;;;;;;5093097;28;20212;-79
2021/01/16 05:28:14;;;;;;;34.80;16.60;;;3.30;99.90;;;;;;5092683;28;20720;-79
2021/01/16 05:30:52;;;;;;;30.53;15.90;;;3.40;99.90;;;;;;5092926;28;20208;-79
2021/01/16 05:33:20;;;;;;;31.23;16.57;;;3.30;99.90;;;;;;5092560;28;20208;-79
2021/01/16 05:35:48;;;;;;;29.00;16.13;;;3.40;99.90;;;;;;5093094;28;20209;-79
2021/01/16 05:38:16;;;;;;;29.90;15.63;;;3.30;99.90;;;;;;5092333;28;20293;-78
2021/01/16 05:40:43;;;;;;;33.87;16.20;;;3.10;99.90;;;;;;5093052;28;20641;-79
2021/01/16 05:43:10;;;;;;;32.67;16.03;;;3.10;99.90;;;;;;5092791;28;20223;-79
2021/01/16 05:45:37;;;;;;;31.63;15.77;;;3.10;99.90;;;;;;5092715;28;20210;-79
2021/01/16 05:48:06;;;;;;;31.07;15.90;;;3.10;99.90;;;;;;5092505;28;20208;-79
2021/01/16 05:50:38;;;;;;;34.27;16.87;;;3.10;99.90;;;;;;5092578;28;20212;-79
2021/01/16 05:53:05;;;;;;;32.50;16.47;;;3.10;99.90;;;;;;5092832;28;20203;-79
2021/01/16 05:55:32;;;;;;;32.53;15.73;;;3.10;99.90;;;;;;5092312;28;20210;-79
2021/01/16 05:58:04;;;;;;;35.40;16.27;;;3.10;99.90;;;;;;5092655;28;20210;-79
2021/01/16 06:00:35;;;;;;;32.20;16.50;;;3.00;99.90;;;;;;5092282;28;20687;-79
2021/01/16 06:03:06;;;;;;;29.77;16.17;;;3.00;99.90;;;;;;5092670;28;20224;-79
2021/01/16 06:05:34;;;;;;;28.50;15.43;;;3.00;99.90;;;;;;5092504;28;20218;-79
2021/01/16 06:08:00;;;;;;;33.80;16.27;;;3.00;99.90;;;;;;5092291;28;20656;-79
2021/01/16 06:10:30;;;;;;;33.97;17.50;;;3.10;99.90;;;;;;5092494;28;20203;-79
2021/01/16 06:13:11;;;;;;;30.97;16.70;;;3.00;99.90;;;;;;5092531;28;20196;-79
2021/01/16 06:15:43;;;;;;;32.70;17.07;;;3.00;99.90;;;;;;5092653;28;20203;-79
2021/01/16 06:18:18;;;;;;;32.77;16.43;;;2.90;99.90;;;;;;5092460;28;20202;-79
2021/01/16 06:20:50;;;;;;;32.67;16.60;;;2.90;99.90;;;;;;5092305;28;20663;-78
2021/01/16 06:23:18;;;;;;;33.00;15.80;;;2.90;99.90;;;;;;5092146;28;20234;-79
2021/01/16 06:25:50;;;;;;;35.57;15.77;;;2.90;99.90;;;;;;5092599;28;20218;-79
2021/01/16 06:28:18;;;;;;;32.63;15.43;;;2.90;99.90;;;;;;5092288;28;20208;-79
2021/01/16 06:30:46;;;;;;;33.33;15.63;;;3.00;99.90;;;;;;5092470;28;20207;-79
2021/01/16 06:33:26;;;;;;;31.60;14.57;;;3.00;99.90;;;;;;5091926;28;20683;-78
2021/01/16 06:36:13;;;;;;;29.60;14.60;;;2.80;99.90;;;;;;5092380;28;20254;-79
2021/01/16 06:38:39;;;;;;;26.80;14.30;;;2.90;99.90;;;;;;5091990;28;20200;-79
2021/01/16 06:41:14;;;;;;;27.03;13.87;;;2.80;99.90;;;;;;5092306;28;20238;-79
2021/01/16 06:43:42;;;;;;;27.50;13.60;;;2.90;99.90;;;;;;5091907;28;20247;-78
2021/01/16 06:46:11;;;;;;;24.67;12.57;;;2.80;99.90;;;;;;5092129;28;20305;-79
2021/01/16 06:48:42;;;;;;;27.33;13.37;;;2.70;99.90;;;;;;5092086;28;20204;-79
2021/01/16 06:51:23;;;;;;;28.47;13.57;;;2.70;99.90;;;;;;5093298;28;20204;-78
2021/01/16 06:53:49;;;;;;;24.93;12.73;;;2.70;99.90;;;;;;5094786;28;20203;-79
2021/01/16 06:56:25;;;;;;;25.97;13.17;;;2.70;99.90;;;;;;5095200;28;20616;-79
2021/01/16 06:58:55;;;;;;;25.07;12.33;;;2.60;99.90;;;;;;5096844;28;20207;-79
2021/01/16 07:01:29;;;;;;;28.33;13.60;;;2.60;99.90;;;;;;5115878;28;20199;-79
2021/01/16 07:03:58;;;;;;;25.70;13.13;;;2.60;99.90;;;;;;5111118;28;20216;-79
2021/01/16 07:06:26;;;;;;;29.70;13.73;;;2.70;99.90;;;;;;5104206;28;20203;-79
2021/01/16 07:08:53;;;;;;;25.37;12.37;;;2.70;99.90;;;;;;5108543;28;20204;-79
2021/01/16 07:11:19;;;;;;;28.67;12.43;;;2.60;99.90;;;;;;5108101;28;20205;-79
2021/01/16 07:13:46;;;;;;;26.07;12.97;;;2.60;99.90;;;;;;5095037;28;20206;-79
2021/01/16 07:16:13;;;;;;;27.67;12.03;;;2.50;99.90;;;;;;5095032;28;20280;-79
2021/01/16 07:18:41;;;;;;;26.03;12.07;;;2.50;99.90;;;;;;5095156;28;20225;-79
2021/01/16 07:21:08;;;;;;;21.67;11.40;;;2.50;99.90;;;;;;5095003;28;20207;-79
2021/01/16 07:23:36;;;;;;;22.63;10.93;;;2.60;99.90;;;;;;5103491;28;20232;-80
2021/01/16 07:26:03;;;;;;;20.87;10.70;;;2.60;99.90;;;;;;5093965;28;20259;-80
2021/01/16 07:28:30;;;;;;;21.17;9.60;;;2.60;99.90;;;;;;5093227;28;20200;-79
2021/01/16 07:30:57;;;;;;;23.67;9.67;;;2.60;99.90;;;;;;5094343;28;20296;-80
2021/01/16 07:33:29;;;;;;;22.73;9.63;;;2.60;99.90;;;;;;5096161;28;20605;-80
2021/01/16 07:35:58;;;;;;;21.97;9.70;;;2.50;99.90;;;;;;5097919;28;20577;-80
2021/01/16 07:38:27;;;;;;;15.83;8.80;;;2.50;99.90;;;;;;5098309;28;20207;-77
2021/01/16 07:40:57;;;;;;;16.23;8.10;;;2.50;99.90;;;;;;5100852;28;20648;-78
2021/01/16 07:43:49;;;;;;;15.37;8.63;;;2.50;99.90;;;;;;5114325;28;20257;-78
2021/01/16 07:46:21;;;;;;;15.70;7.47;;;2.60;99.90;;;;;;5104689;28;20202;-78
2021/01/16 07:48:55;;;;;;;16.10;8.00;;;2.60;99.90;;;;;;5102237;28;20211;-77
2021/01/16 07:51:25;;;;;;;16.07;7.50;;;2.60;99.90;;;;;;5114802;28;20201;-77
2021/01/16 07:53:55;;;;;;;14.40;7.10;;;2.70;99.90;;;;;;5115006;28;20290;-77
2021/01/16 07:56:23;;;;;;;14.73;7.70;;;2.80;99.90;;;;;;5114277;28;20200;-77
2021/01/16 07:59:08;;;;;;;15.13;7.50;;;2.80;99.90;;;;;;5114449;28;20215;-77
2021/01/16 08:01:46;;;;;;;14.30;7.27;;;2.80;99.90;;;;;;5113089;28;20230;-78
2021/01/16 08:04:23;;;;;;;14.43;7.20;;;2.90;99.90;;;;;;5114345;28;20260;-78
2021/01/16 08:07:04;;;;;;;14.53;7.27;;;3.00;99.90;;;;;;5113549;28;20226;-77
2021/01/16 08:10:03;;;;;;;13.10;6.50;;;3.10;99.90;;;;;;5097851;28;20729;-77
2021/01/16 08:12:30;;;;;;;16.87;7.90;;;3.00;99.90;;;;;;5064482;28;20236;-78
2021/01/16 08:15:02;;;;;;;13.93;6.87;;;3.00;99.90;;;;;;5062349;28;20573;-78
2021/01/16 08:17:34;;;;;;;13.80;6.80;;;3.10;99.90;;;;;;5090636;28;20663;-77
2021/01/16 08:20:15;;;;;;;13.07;6.33;;;3.00;99.90;;;;;;5111975;28;20204;-77
2021/01/16 08:22:43;;;;;;;10.73;6.00;;;3.00;99.90;;;;;;5105598;28;20218;-78
2021/01/16 08:25:11;;;;;;;12.82;6.90;;;3.00;99.90;;;;;;5113991;28;20439;-77
2021/01/16 08:27:41;;;;;;;14.90;6.23;;;2.90;99.90;;;;;;5111126;28;20203;-77
2021/01/16 08:30:09;;;;;;;12.33;6.47;;;2.90;99.90;;;;;;5113352;28;20199;-77
2021/01/16 08:33:01;;;;;;;11.07;5.83;;;3.00;99.90;;;;;;5102470;28;20246;-78
2021/01/16 08:35:30;;;;;;;11.33;5.63;;;3.00;99.90;;;;;;5113584;28;20196;-77
2021/01/16 08:38:24;;;;;;;10.57;5.77;;;3.20;99.90;;;;;;5114233;28;20210;-78
2021/01/16 08:41:03;;;;;;;10.87;5.60;;;3.20;99.90;;;;;;5110915;28;20198;-77
2021/01/16 08:43:33;;;;;;;9.00;4.97;;;3.30;99.90;;;;;;5111935;28;20646;-79
2021/01/16 08:46:08;;;;;;;8.63;4.60;;;3.40;99.90;;;;;;5113404;28;20224;-77
2021/01/16 08:48:34;;;;;;;10.67;5.00;;;3.40;99.90;;;;;;5101242;28;20263;-78
2021/01/16 08:51:01;;;;;;;10.40;4.87;;;3.50;99.90;;;;;;5113426;28;20203;-77
2021/01/16 08:53:28;;;;;;;7.53;4.47;;;3.60;99.90;;;;;;5113719;28;20282;-78
2021/01/16 08:55:55;;;;;;;8.93;4.70;;;3.70;99.90;;;;;;5113280;28;20207;-78
2021/01/16 08:58:28;;;;;;;9.90;4.37;;;3.70;99.90;;;;;;5119084;28;20235;-78
2021/01/16 09:00:57;;;;;;;6.83;3.97;;;3.80;99.90;;;;;;5112545;28;20216;-77
2021/01/16 09:03:25;;;;;;;7.33;4.23;;;3.80;99.90;;;;;;5112392;28;20220;-78
2021/01/16 09:06:01;;;;;;;7.73;4.43;;;3.80;99.90;;;;;;5109651;28;20195;-78
2021/01/16 09:08:28;;;;;;;7.37;4.27;;;3.80;99.90;;;;;;5109474;28;20295;-77
2021/01/16 09:11:12;;;;;;;7.07;4.27;;;3.90;99.90;;;;;;5111253;28;20200;-78
2021/01/16 09:13:41;;;;;;;12.10;4.43;;;4.00;99.90;;;;;;5106728;28;20257;-78
2021/01/16 09:16:28;;;;;;;10.13;5.10;;;4.00;99.90;;;;;;5112601;28;20203;-78
2021/01/16 09:18:55;;;;;;;12.67;5.30;;;3.90;99.90;;;;;;5107434;28;20200;-78
2021/01/16 09:21:23;;;;;;;10.00;5.50;;;3.90;99.90;;;;;;5105949;28;20198;-78
2021/01/16 09:23:50;;;;;;;11.37;5.50;;;3.90;99.90;;;;;;5112510;28;20196;-78
2021/01/16 09:26:18;;;;;;;12.17;6.60;;;3.80;99.90;;;;;;5112372;28;20205;-78
2021/01/16 09:28:54;;;;;;;10.23;5.97;;;3.80;99.90;;;;;;5114001;28;20737;-78
2021/01/16 09:31:24;;;;;;;11.50;6.83;;;3.80;99.90;;;;;;5104149;28;20199;-78
2021/01/16 09:33:53;;;;;;;12.10;6.47;;;3.90;99.90;;;;;;5111408;28;20529;-78
2021/01/16 09:36:43;;;;;;;11.60;6.23;;;3.80;99.90;;;;;;5112100;28;20656;-78
2021/01/16 09:39:18;;;;;;;12.60;6.83;;;3.70;99.90;;;;;;5111963;28;20656;-78
2021/01/16 09:41:45;;;;;;;12.20;6.13;;;3.70;99.90;;;;;;5112263;28;20231;-78
2021/01/16 09:44:11;;;;;;;15.33;6.67;;;3.80;99.90;;;;;;5107421;28;20207;-81
2021/01/16 09:46:41;;;;;;;10.63;6.37;;;3.70;99.90;;;;;;5112048;28;20199;-81
2021/01/16 09:49:10;;;;;;;11.37;6.70;;;3.60;99.90;;;;;;5111590;28;20191;-81
2021/01/16 09:51:37;;;;;;;11.60;6.57;;;3.60;99.90;;;;;;5110916;28;20226;-81
2021/01/16 09:54:14;;;;;;;13.13;7.17;;;3.50;99.90;;;;;;5111504;28;20207;-81
2021/01/16 09:56:46;;;;;;;13.17;7.33;;;3.60;99.90;;;;;;5096838;28;20631;-81
2021/01/16 09:59:22;;;;;;;13.40;7.60;;;3.60;99.90;;;;;;5098131;28;20597;-80
2021/01/16 10:02:11;;;;;;;16.50;7.70;;;3.70;99.90;;;;;;5111892;28;20227;-80
2021/01/16 10:04:43;;;;;;;16.77;8.80;;;3.60;99.90;;;;;;5101244;28;20284;-81
2021/01/16 10:07:13;;;;;;;16.90;8.97;;;3.60;99.90;;;;;;5111060;28;20203;-81
2021/01/16 10:09:45;;;;;;;16.57;8.80;;;3.60;99.90;;;;;;5099293;28;20292;-82
2021/01/16 10:12:40;;;;;;;15.37;8.60;;;3.50;99.90;;;;;;5099475;28;20212;-81
2021/01/16 10:15:09;;;;;;;18.13;8.73;;;3.50;99.90;;;;;;5107716;28;20215;-81
2021/01/16 10:17:40;;;;;;;14.60;8.47;;;3.40;99.90;;;;;;5106155;28;20202;-78
2021/01/16 10:20:09;;;;;;;19.20;9.30;;;3.50;99.90;;;;;;5098716;28;20203;-76
2021/01/16 10:22:36;;;;;;;19.27;9.80;;;3.50;99.90;;;;;;5096935;28;20251;-76
2021/01/16 10:25:10;;;;;;;20.80;9.00;;;3.50;99.90;;;;;;5110532;28;20665;-76
2021/01/16 10:27:49;;;;;;;20.97;9.77;;;3.50;99.90;;;;;;5112513;28;20720;-77
2021/01/16 10:30:18;;;;;;;17.90;8.83;;;3.50;99.90;;;;;;5103982;28;20200;-76
2021/01/16 10:32:47;;;;;;;18.17;9.80;;;3.60;99.90;;;;;;5114271;28;20617;-76
2021/01/16 10:35:21;;;;;;;18.03;9.53;;;3.60;99.90;;;;;;5102447;28;20196;-76
2021/01/16 10:37:48;;;;;;;20.50;9.30;;;3.50;99.90;;;;;;5116118;28;20570;-76
2021/01/16 10:40:15;;;;;;;17.93;9.37;;;3.50;99.90;;;;;;5115456;28;20297;-75
2021/01/16 10:42:46;;;;;;;19.87;9.63;;;3.40;99.90;;;;;;5116018;28;20225;-77
2021/01/16 10:45:14;;;;;;;19.47;10.23;;;3.30;99.90;;;;;;5111030;28;20322;-76
2021/01/16 10:47:43;;;;;;;20.90;10.13;;;3.40;99.90;;;;;;5106867;28;20278;-76
2021/01/16 10:50:13;;;;;;;18.73;9.20;;;3.50;99.90;;;;;;5115730;28;20203;-76
2021/01/16 10:52:40;;;;;;;17.33;9.57;;;3.40;99.90;;;;;;5115562;28;20661;-76
2021/01/16 10:55:09;;;;;;;25.70;10.83;;;3.50;99.90;;;;;;5112826;28;20211;-77
2021/01/16 10:57:46;;;;;;;17.13;8.27;;;3.60;99.90;;;;;;5114725;28;20276;-76
2021/01/16 11:00:17;;;;;;;18.23;9.07;;;3.60;99.90;;;;;;5115736;28;20205;-76
2021/01/16 11:02:44;;;;;;;16.40;8.80;;;3.60;99.90;;;;;;5114991;28;20220;-76
2021/01/16 11:05:27;;;;;;;15.57;8.30;;;3.50;99.90;;;;;;5107615;28;20200;-77
2021/01/16 11:07:59;;;;;;;14.83;7.77;;;3.30;99.90;;;;;;5092508;28;20216;-77
2021/01/16 11:10:34;;;;;;;14.93;8.30;;;3.40;99.90;;;;;;5099651;28;20218;-76
2021/01/16 11:13:31;;;;;;;19.20;9.17;;;3.50;99.90;;;;;;5100976;28;20203;-76
2021/01/16 11:16:12;;;;;;;17.60;8.90;;;3.60;99.90;;;;;;5080182;28;20211;-76
2021/01/16 11:18:39;;;;;;;14.97;7.70;;;3.60;99.90;;;;;;5095401;28;20660;-77
2021/01/16 11:21:07;;;;;;;18.63;8.97;;;3.60;99.90;;;;;;5110740;28;20207;-76
2021/01/16 11:24:03;;;;;;;15.50;8.27;;;3.50;99.90;;;;;;5116248;28;20318;-75
2021/01/16 11:26:45;;;;;;;19.83;8.97;;;3.60;99.90;;;;;;5104165;28;20269;-76
2021/01/16 11:29:17;;;;;;;17.00;8.60;;;3.80;99.90;;;;;;5106402;28;20196;-76
2021/01/16 11:31:48;;;;;;;17.90;8.40;;;3.70;99.90;;;;;;5110403;28;20230;-76
2021/01/16 11:34:25;;;;;;;19.10;9.07;;;3.30;99.90;;;;;;5111416;28;20211;-76
2021/01/16 11:37:01;;;;;;;16.80;8.33;;;3.40;99.90;;;;;;5110250;28;20206;-76
2021/01/16 11:39:43;;;;;;;18.00;9.10;;;3.40;99.90;;;;;;5111158;28;20199;-76
2021/01/16 11:42:10;;;;;;;20.37;8.90;;;3.60;99.90;;;;;;5109672;28;20227;-76
2021/01/16 11:44:58;;;;;;;17.07;8.70;;;3.60;99.90;;;;;;5113711;28;20222;-76
2021/01/16 11:47:26;;;;;;;21.57;9.90;;;3.60;99.90;;;;;;5105879;28;20206;-76
2021/01/16 11:49:57;;;;;;;17.67;8.87;;;3.50;99.90;;;;;;5114885;28;20275;-76
2021/01/16 11:52:26;;;;;;;18.23;8.90;;;3.50;99.90;;;;;;5114901;28;20716;-76
2021/01/16 11:54:52;;;;;;;23.10;10.07;;;3.50;99.90;;;;;;5110740;28;20298;-76
2021/01/16 11:57:22;;;;;;;20.03;10.03;;;3.60;99.90;;;;;;5111831;28;20199;-76
2021/01/16 11:59:49;;;;;;;19.23;10.03;;;3.70;99.90;;;;;;5113853;28;20616;-76
2021/01/16 12:02:16;;;;;;;18.33;9.60;;;3.60;99.90;;;;;;5094747;28;21272;-76
2021/01/16 12:04:43;;;;;;;18.60;10.30;;;3.60;99.90;;;;;;5097053;28;20204;-76
2021/01/16 12:07:12;;;;;;;19.27;10.60;;;3.50;99.90;;;;;;5103263;28;20208;-76
2021/01/16 12:09:43;;;;;;;18.77;10.03;;;3.50;99.90;;;;;;5108287;28;20662;-76
2021/01/16 12:12:10;;;;;;;21.00;10.50;;;3.70;99.90;;;;;;5099141;28;20199;-76
2021/01/16 12:14:38;;;;;;;20.47;10.97;;;3.70;99.90;;;;;;5098009;28;20221;-76
2021/01/16 12:17:08;;;;;;;21.33;10.80;;;3.60;99.90;;;;;;5108525;28;20236;-76
2021/01/16 12:19:36;;;;;;;20.63;10.93;;;3.60;99.90;;;;;;5109045;28;20271;-76
2021/01/16 12:22:05;;;;;;;22.37;11.27;;;3.70;99.90;;;;;;5110770;28;20237;-76
2021/01/16 12:24:32;;;;;;;20.07;10.73;;;3.70;99.90;;;;;;5100259;28;20208;-76
2021/01/16 12:27:01;;;;;;;25.73;10.73;;;3.70;99.90;;;;;;5110925;28;20202;-76
2021/01/16 12:29:38;;;;;;;24.37;11.20;;;3.50;99.90;;;;;;5104373;28;20648;-76
2021/01/16 12:32:07;;;;;;;23.10;11.77;;;3.40;99.90;;;;;;5111906;28;20224;-77
2021/01/16 12:34:34;;;;;;;22.83;11.33;;;3.40;99.90;;;;;;5111982;28;20218;-76
2021/01/16 12:37:01;;;;;;;23.73;11.77;;;3.40;99.90;;;;;;5106456;28;20222;-76
2021/01/16 12:39:29;;;;;;;23.60;11.43;;;3.40;99.90;;;;;;5104260;28;20202;-76
2021/01/16 12:41:59;;;;;;;24.43;12.23;;;3.30;99.90;;;;;;5109686;28;20203;-76
2021/01/16 12:44:26;;;;;;;24.23;12.17;;;3.40;99.90;;;;;;5103961;28;20582;-76
2021/01/16 12:46:52;;;;;;;26.63;12.40;;;3.40;99.90;;;;;;5112189;28;20222;-77
2021/01/16 12:49:19;;;;;;;26.53;12.77;;;3.30;99.90;;;;;;5108532;28;20606;-76
2021/01/16 12:51:47;;;;;;;24.53;12.33;;;3.30;99.90;;;;;;5106464;28;20200;-76
2021/01/16 12:54:16;;;;;;;26.33;12.37;;;3.30;99.90;;;;;;5109743;28;20212;-77
2021/01/16 12:56:43;;;;;;;25.23;12.40;;;3.20;99.90;;;;;;5105537;28;20620;-76